sensor_id;sensor_type;location;lat;lon;timestamp;P1;durP1;ratioP1;P2;durP2;ratioP2
19436;SDS011;9854;50.968;4.168;2023-05-24T00:02:18;17.02;;;4.45;;
19436;SDS011;9854;50.968;4.168;2023-05-24T00:04:44;13.85;;;4.15;;
19436;SDS011;9854;50.968;4.168;2023-05-24T00:07:10;15.35;;;4.38;;
19436;SDS011;9854;50.968;4.168;2023-05-24T00:09:35;17.83;;;4.15;;
19436;SDS011;9854;50.968;4.168;2023-05-24T00:12:01;18.48;;;4.75;;
19436;SDS011;9854;50.968;4.168;2023-05-24T00:14:27;17.30;;;4.20;;
19436;SDS011;9854;50.968;4.168;2023-05-24T00:16:53;18.00;;;4.18;;
19436;SDS011;9854;50.968;4.168;2023-05-24T00:19:18;17.67;;;4.60;;
19436;SDS011;9854;50.968;4.168;2023-05-24T00:21:46;17.08;;;4.40;;
19436;SDS011;9854;50.968;4.168;2023-05-24T00:24:12;16.23;;;4.38;;
19436;SDS011;9854;50.968;4.168;2023-05-24T00:26:38;18.77;;;4.60;;
19436;SDS011;9854;50.968;4.168;2023-05-24T00:29:04;18.95;;;4.32;;
19436;SDS011;9854;50.968;4.168;2023-05-24T00:31:30;17.80;;;4.63;;
19436;SDS011;9854;50.968;4.168;2023-05-24T00:33:56;10.75;;;3.60;;
19436;SDS011;9854;50.968;4.168;2023-05-24T00:36:22;16.48;;;4.47;;
19436;SDS011;9854;50.968;4.168;2023-05-24T00:38:47;15.85;;;4.72;;
19436;SDS011;9854;50.968;4.168;2023-05-24T00:41:13;17.73;;;4.50;;
19436;SDS011;9854;50.968;4.168;2023-05-24T00:43:39;9.85;;;4.13;;
19436;SDS011;9854;50.968;4.168;2023-05-24T00:48:41;20.05;;;4.35;;
19436;SDS011;9854;50.968;4.168;2023-05-24T00:51:07;21.25;;;4.68;;
19436;SDS011;9854;50.968;4.168;2023-05-24T00:53:33;14.93;;;4.60;;
19436;SDS011;9854;50.968;4.168;2023-05-24T00:56:01;21.05;;;5.18;;
19436;SDS011;9854;50.968;4.168;2023-05-24T00:58:28;13.73;;;4.28;;
19436;SDS011;9854;50.968;4.168;2023-05-24T01:00:58;18.30;;;5.20;;
19436;SDS011;9854;50.968;4.168;2023-05-24T01:03:25;17.13;;;5.03;;
19436;SDS011;9854;50.968;4.168;2023-05-24T01:05:58;15.15;;;5.00;;
19436;SDS011;9854;50.968;4.168;2023-05-24T01:13:53;13.07;;;4.70;;
19436;SDS011;9854;50.968;4.168;2023-05-24T01:16:24;18.02;;;4.45;;
19436;SDS011;9854;50.968;4.168;2023-05-24T01:18:56;18.42;;;4.90;;
19436;SDS011;9854;50.968;4.168;2023-05-24T01:24:31;15.43;;;4.83;;
19436;SDS011;9854;50.968;4.168;2023-05-24T01:27:19;14.45;;;4.78;;
19436;SDS011;9854;50.968;4.168;2023-05-24T01:29:47;19.08;;;4.88;;
19436;SDS011;9854;50.968;4.168;2023-05-24T01:32:18;13.48;;;4.63;;
19436;SDS011;9854;50.968;4.168;2023-05-24T01:34:43;13.48;;;4.55;;
19436;SDS011;9854;50.968;4.168;2023-05-24T01:37:09;14.33;;;5.07;;
19436;SDS011;9854;50.968;4.168;2023-05-24T01:39:35;17.10;;;5.17;;
19436;SDS011;9854;50.968;4.168;2023-05-24T01:50:25;14.77;;;5.20;;
19436;SDS011;9854;50.968;4.168;2023-05-24T01:52:54;14.67;;;5.17;;
19436;SDS011;9854;50.968;4.168;2023-05-24T01:55:26;14.63;;;4.93;;
19436;SDS011;9854;50.968;4.168;2023-05-24T01:57:53;16.10;;;5.33;;
19436;SDS011;9854;50.968;4.168;2023-05-24T02:00:24;17.93;;;5.63;;
19436;SDS011;9854;50.968;4.168;2023-05-24T02:02:50;18.47;;;5.03;;
19436;SDS011;9854;50.968;4.168;2023-05-24T02:05:16;25.30;;;5.73;;
19436;SDS011;9854;50.968;4.168;2023-05-24T02:07:42;14.77;;;4.70;;
19436;SDS011;9854;50.968;4.168;2023-05-24T02:10:07;15.80;;;5.00;;
19436;SDS011;9854;50.968;4.168;2023-05-24T02:12:33;18.37;;;5.43;;
19436;SDS011;9854;50.968;4.168;2023-05-24T02:14:59;15.80;;;5.13;;
19436;SDS011;9854;50.968;4.168;2023-05-24T02:17:25;16.10;;;4.83;;
19436;SDS011;9854;50.968;4.168;2023-05-24T02:19:51;14.03;;;4.30;;
19436;SDS011;9854;50.968;4.168;2023-05-24T02:22:17;14.90;;;4.93;;
19436;SDS011;9854;50.968;4.168;2023-05-24T02:24:46;17.47;;;5.17;;
19436;SDS011;9854;50.968;4.168;2023-05-24T02:27:12;15.90;;;5.03;;
19436;SDS011;9854;50.968;4.168;2023-05-24T02:29:37;13.67;;;5.27;;
19436;SDS011;9854;50.968;4.168;2023-05-24T02:32:05;17.87;;;5.70;;
19436;SDS011;9854;50.968;4.168;2023-05-24T02:34:31;17.37;;;5.40;;
19436;SDS011;9854;50.968;4.168;2023-05-24T02:36:57;11.70;;;5.30;;
19436;SDS011;9854;50.968;4.168;2023-05-24T02:39:23;16.80;;;5.70;;
19436;SDS011;9854;50.968;4.168;2023-05-24T02:41:48;16.50;;;5.53;;
19436;SDS011;9854;50.968;4.168;2023-05-24T02:44:14;20.97;;;5.93;;
19436;SDS011;9854;50.968;4.168;2023-05-24T02:46:40;14.57;;;5.33;;
19436;SDS011;9854;50.968;4.168;2023-05-24T02:49:05;18.93;;;6.67;;
19436;SDS011;9854;50.968;4.168;2023-05-24T02:51:31;15.57;;;5.60;;
19436;SDS011;9854;50.968;4.168;2023-05-24T02:53:57;18.67;;;6.67;;
19436;SDS011;9854;50.968;4.168;2023-05-24T02:56:23;16.23;;;6.47;;
19436;SDS011;9854;50.968;4.168;2023-05-24T02:58:50;17.00;;;5.53;;
19436;SDS011;9854;50.968;4.168;2023-05-24T03:01:18;14.67;;;5.83;;
19436;SDS011;9854;50.968;4.168;2023-05-24T03:03:45;18.27;;;5.60;;
19436;SDS011;9854;50.968;4.168;2023-05-24T03:06:11;12.77;;;4.97;;
19436;SDS011;9854;50.968;4.168;2023-05-24T03:08:38;11.10;;;5.20;;
19436;SDS011;9854;50.968;4.168;2023-05-24T03:11:04;14.73;;;5.60;;
19436;SDS011;9854;50.968;4.168;2023-05-24T03:13:29;14.83;;;5.40;;
19436;SDS011;9854;50.968;4.168;2023-05-24T03:15:55;14.40;;;5.37;;
19436;SDS011;9854;50.968;4.168;2023-05-24T03:18:21;19.47;;;5.67;;
19436;SDS011;9854;50.968;4.168;2023-05-24T03:20:46;17.77;;;5.93;;
19436;SDS011;9854;50.968;4.168;2023-05-24T03:23:12;15.93;;;5.30;;
19436;SDS011;9854;50.968;4.168;2023-05-24T03:25:38;18.93;;;6.10;;
19436;SDS011;9854;50.968;4.168;2023-05-24T03:28:04;17.97;;;6.20;;
19436;SDS011;9854;50.968;4.168;2023-05-24T03:30:31;23.63;;;5.80;;
19436;SDS011;9854;50.968;4.168;2023-05-24T03:32:57;14.83;;;6.07;;
19436;SDS011;9854;50.968;4.168;2023-05-24T03:35:22;22.70;;;6.73;;
19436;SDS011;9854;50.968;4.168;2023-05-24T03:37:48;13.23;;;5.47;;
19436;SDS011;9854;50.968;4.168;2023-05-24T03:40:14;17.90;;;5.70;;
19436;SDS011;9854;50.968;4.168;2023-05-24T03:42:40;11.10;;;5.40;;
19436;SDS011;9854;50.968;4.168;2023-05-24T03:45:05;13.50;;;5.57;;
19436;SDS011;9854;50.968;4.168;2023-05-24T03:47:31;16.50;;;6.00;;
19436;SDS011;9854;50.968;4.168;2023-05-24T03:49:57;22.13;;;6.37;;
19436;SDS011;9854;50.968;4.168;2023-05-24T03:52:23;16.27;;;6.37;;
19436;SDS011;9854;50.968;4.168;2023-05-24T03:54:49;14.87;;;6.27;;
19436;SDS011;9854;50.968;4.168;2023-05-24T03:57:15;18.27;;;6.27;;
19436;SDS011;9854;50.968;4.168;2023-05-24T03:59:41;13.57;;;6.23;;
19436;SDS011;9854;50.968;4.168;2023-05-24T04:02:06;20.13;;;6.27;;
19436;SDS011;9854;50.968;4.168;2023-05-24T04:04:32;20.57;;;6.20;;
19436;SDS011;9854;50.968;4.168;2023-05-24T04:06:58;21.53;;;6.33;;
19436;SDS011;9854;50.968;4.168;2023-05-24T04:09:23;24.30;;;6.87;;
19436;SDS011;9854;50.968;4.168;2023-05-24T04:11:49;14.07;;;6.00;;
19436;SDS011;9854;50.968;4.168;2023-05-24T04:14:15;20.87;;;6.53;;
19436;SDS011;9854;50.968;4.168;2023-05-24T04:16:41;16.53;;;6.13;;
19436;SDS011;9854;50.968;4.168;2023-05-24T04:19:09;17.40;;;6.53;;
19436;SDS011;9854;50.968;4.168;2023-05-24T04:21:35;20.80;;;6.37;;
19436;SDS011;9854;50.968;4.168;2023-05-24T04:24:02;24.93;;;7.43;;
19436;SDS011;9854;50.968;4.168;2023-05-24T04:26:28;20.77;;;7.40;;
19436;SDS011;9854;50.968;4.168;2023-05-24T04:28:54;19.00;;;6.83;;
19436;SDS011;9854;50.968;4.168;2023-05-24T04:31:21;22.23;;;6.97;;
19436;SDS011;9854;50.968;4.168;2023-05-24T04:33:47;21.60;;;7.53;;
19436;SDS011;9854;50.968;4.168;2023-05-24T04:36:14;20.87;;;7.97;;
19436;SDS011;9854;50.968;4.168;2023-05-24T04:38:40;19.60;;;7.00;;
19436;SDS011;9854;50.968;4.168;2023-05-24T04:41:05;31.73;;;8.10;;
19436;SDS011;9854;50.968;4.168;2023-05-24T04:43:31;25.17;;;7.93;;
19436;SDS011;9854;50.968;4.168;2023-05-24T04:45:58;16.17;;;6.83;;
19436;SDS011;9854;50.968;4.168;2023-05-24T04:48:24;26.13;;;8.13;;
19436;SDS011;9854;50.968;4.168;2023-05-24T04:50:50;18.23;;;7.50;;
19436;SDS011;9854;50.968;4.168;2023-05-24T04:53:16;28.83;;;8.15;;
19436;SDS011;9854;50.968;4.168;2023-05-24T04:55:43;21.97;;;7.60;;
19436;SDS011;9854;50.968;4.168;2023-05-24T04:58:08;19.27;;;8.03;;
19436;SDS011;9854;50.968;4.168;2023-05-24T05:00:34;25.17;;;7.60;;
19436;SDS011;9854;50.968;4.168;2023-05-24T05:03:00;19.07;;;7.57;;
19436;SDS011;9854;50.968;4.168;2023-05-24T05:05:25;21.57;;;7.80;;
19436;SDS011;9854;50.968;4.168;2023-05-24T05:07:51;33.53;;;8.80;;
19436;SDS011;9854;50.968;4.168;2023-05-24T05:10:17;25.55;;;7.63;;
19436;SDS011;9854;50.968;4.168;2023-05-24T05:12:42;23.33;;;7.93;;
19436;SDS011;9854;50.968;4.168;2023-05-24T05:15:08;27.52;;;8.02;;
19436;SDS011;9854;50.968;4.168;2023-05-24T05:17:34;21.73;;;8.07;;
19436;SDS011;9854;50.968;4.168;2023-05-24T05:20:01;24.20;;;7.78;;
19436;SDS011;9854;50.968;4.168;2023-05-24T05:22:27;26.13;;;7.25;;
19436;SDS011;9854;50.968;4.168;2023-05-24T05:24:53;24.27;;;7.40;;
19436;SDS011;9854;50.968;4.168;2023-05-24T05:27:18;28.90;;;7.28;;
19436;SDS011;9854;50.968;4.168;2023-05-24T05:29:44;28.33;;;7.60;;
19436;SDS011;9854;50.968;4.168;2023-05-24T05:32:10;26.42;;;8.15;;
19436;SDS011;9854;50.968;4.168;2023-05-24T05:34:35;18.85;;;7.78;;
19436;SDS011;9854;50.968;4.168;2023-05-24T05:37:01;22.42;;;8.20;;
19436;SDS011;9854;50.968;4.168;2023-05-24T05:39:27;26.40;;;8.05;;
19436;SDS011;9854;50.968;4.168;2023-05-24T05:41:52;22.52;;;8.18;;
19436;SDS011;9854;50.968;4.168;2023-05-24T05:44:18;21.98;;;7.53;;
19436;SDS011;9854;50.968;4.168;2023-05-24T05:46:44;25.23;;;8.18;;
19436;SDS011;9854;50.968;4.168;2023-05-24T05:49:10;19.85;;;7.85;;
19436;SDS011;9854;50.968;4.168;2023-05-24T05:51:36;20.50;;;7.70;;
19436;SDS011;9854;50.968;4.168;2023-05-24T05:54:03;19.17;;;7.32;;
19436;SDS011;9854;50.968;4.168;2023-05-24T05:56:29;27.27;;;7.55;;
19436;SDS011;9854;50.968;4.168;2023-05-24T05:58:55;18.77;;;7.75;;
19436;SDS011;9854;50.968;4.168;2023-05-24T06:01:20;20.75;;;7.95;;
19436;SDS011;9854;50.968;4.168;2023-05-24T06:03:49;23.48;;;7.63;;
19436;SDS011;9854;50.968;4.168;2023-05-24T06:06:15;22.70;;;8.27;;
19436;SDS011;9854;50.968;4.168;2023-05-24T06:08:41;18.00;;;7.40;;
19436;SDS011;9854;50.968;4.168;2023-05-24T06:11:07;27.25;;;8.50;;
19436;SDS011;9854;50.968;4.168;2023-05-24T06:13:32;22.70;;;7.35;;
19436;SDS011;9854;50.968;4.168;2023-05-24T06:15:58;18.15;;;7.38;;
19436;SDS011;9854;50.968;4.168;2023-05-24T06:18:25;23.73;;;7.72;;
19436;SDS011;9854;50.968;4.168;2023-05-24T06:20:51;21.80;;;6.88;;
19436;SDS011;9854;50.968;4.168;2023-05-24T06:23:17;24.55;;;6.82;;
19436;SDS011;9854;50.968;4.168;2023-05-24T06:25:42;16.35;;;6.55;;
19436;SDS011;9854;50.968;4.168;2023-05-24T06:28:08;24.00;;;6.65;;
19436;SDS011;9854;50.968;4.168;2023-05-24T06:30:34;20.63;;;6.57;;
19436;SDS011;9854;50.968;4.168;2023-05-24T06:33:00;18.38;;;6.30;;
19436;SDS011;9854;50.968;4.168;2023-05-24T06:35:26;18.92;;;6.38;;
19436;SDS011;9854;50.968;4.168;2023-05-24T06:37:52;26.20;;;6.47;;
19436;SDS011;9854;50.968;4.168;2023-05-24T06:40:17;24.95;;;6.88;;
19436;SDS011;9854;50.968;4.168;2023-05-24T06:42:43;21.27;;;6.07;;
19436;SDS011;9854;50.968;4.168;2023-05-24T06:45:09;28.02;;;7.07;;
19436;SDS011;9854;50.968;4.168;2023-05-24T06:47:35;20.90;;;6.38;;
19436;SDS011;9854;50.968;4.168;2023-05-24T06:50:01;26.25;;;6.28;;
19436;SDS011;9854;50.968;4.168;2023-05-24T06:52:28;25.80;;;7.43;;
19436;SDS011;9854;50.968;4.168;2023-05-24T06:54:54;20.05;;;6.38;;
19436;SDS011;9854;50.968;4.168;2023-05-24T06:57:20;24.45;;;6.55;;
19436;SDS011;9854;50.968;4.168;2023-05-24T06:59:46;24.50;;;6.13;;
19436;SDS011;9854;50.968;4.168;2023-05-24T07:02:11;23.02;;;6.60;;
19436;SDS011;9854;50.968;4.168;2023-05-24T07:04:37;29.55;;;6.63;;
19436;SDS011;9854;50.968;4.168;2023-05-24T07:07:05;20.85;;;5.72;;
19436;SDS011;9854;50.968;4.168;2023-05-24T07:09:31;22.42;;;5.55;;
19436;SDS011;9854;50.968;4.168;2023-05-24T07:11:56;17.65;;;5.20;;
19436;SDS011;9854;50.968;4.168;2023-05-24T07:14:22;27.23;;;5.45;;
19436;SDS011;9854;50.968;4.168;2023-05-24T07:16:49;21.70;;;6.03;;
19436;SDS011;9854;50.968;4.168;2023-05-24T07:19:15;27.75;;;6.68;;
19436;SDS011;9854;50.968;4.168;2023-05-24T07:21:41;17.42;;;5.28;;
19436;SDS011;9854;50.968;4.168;2023-05-24T07:24:07;28.67;;;5.25;;
19436;SDS011;9854;50.968;4.168;2023-05-24T07:26:32;24.73;;;5.32;;
19436;SDS011;9854;50.968;4.168;2023-05-24T07:28:58;20.63;;;5.45;;
19436;SDS011;9854;50.968;4.168;2023-05-24T07:31:23;20.30;;;5.55;;
19436;SDS011;9854;50.968;4.168;2023-05-24T07:33:51;24.98;;;5.35;;
19436;SDS011;9854;50.968;4.168;2023-05-24T07:36:16;20.23;;;5.78;;
19436;SDS011;9854;50.968;4.168;2023-05-24T07:38:42;23.27;;;5.32;;
19436;SDS011;9854;50.968;4.168;2023-05-24T07:41:08;22.75;;;5.85;;
19436;SDS011;9854;50.968;4.168;2023-05-24T07:43:34;27.30;;;5.65;;
19436;SDS011;9854;50.968;4.168;2023-05-24T07:46:01;20.30;;;5.38;;
19436;SDS011;9854;50.968;4.168;2023-05-24T07:48:27;21.02;;;5.50;;
19436;SDS011;9854;50.968;4.168;2023-05-24T07:50:52;20.85;;;5.40;;
19436;SDS011;9854;50.968;4.168;2023-05-24T07:53:18;19.30;;;6.15;;
19436;SDS011;9854;50.968;4.168;2023-05-24T07:55:44;20.95;;;6.32;;
19436;SDS011;9854;50.968;4.168;2023-05-24T07:58:10;22.80;;;6.05;;
19436;SDS011;9854;50.968;4.168;2023-05-24T08:00:36;27.42;;;5.88;;
19436;SDS011;9854;50.968;4.168;2023-05-24T08:03:02;20.13;;;6.00;;
19436;SDS011;9854;50.968;4.168;2023-05-24T08:05:29;19.45;;;5.18;;
19436;SDS011;9854;50.968;4.168;2023-05-24T08:07:55;20.02;;;5.80;;
19436;SDS011;9854;50.968;4.168;2023-05-24T08:10:21;24.38;;;5.32;;
19436;SDS011;9854;50.968;4.168;2023-05-24T08:12:47;26.27;;;5.53;;
19436;SDS011;9854;50.968;4.168;2023-05-24T08:15:15;23.30;;;5.90;;
19436;SDS011;9854;50.968;4.168;2023-05-24T08:17:41;25.55;;;6.57;;
19436;SDS011;9854;50.968;4.168;2023-05-24T08:20:07;25.15;;;5.57;;
19436;SDS011;9854;50.968;4.168;2023-05-24T08:22:39;22.83;;;6.10;;
19436;SDS011;9854;50.968;4.168;2023-05-24T08:25:05;20.77;;;5.88;;
19436;SDS011;9854;50.968;4.168;2023-05-24T08:27:31;17.38;;;5.25;;
19436;SDS011;9854;50.968;4.168;2023-05-24T08:29:57;27.73;;;6.00;;
19436;SDS011;9854;50.968;4.168;2023-05-24T08:32:23;21.63;;;5.50;;
19436;SDS011;9854;50.968;4.168;2023-05-24T08:34:48;24.15;;;5.60;;
19436;SDS011;9854;50.968;4.168;2023-05-24T08:37:14;15.52;;;4.80;;
19436;SDS011;9854;50.968;4.168;2023-05-24T08:39:43;13.90;;;5.40;;
19436;SDS011;9854;50.968;4.168;2023-05-24T08:42:09;17.50;;;5.57;;
19436;SDS011;9854;50.968;4.168;2023-05-24T08:44:47;16.67;;;4.90;;
19436;SDS011;9854;50.968;4.168;2023-05-24T08:47:18;19.58;;;5.43;;
19436;SDS011;9854;50.968;4.168;2023-05-24T08:49:49;20.73;;;5.25;;
19436;SDS011;9854;50.968;4.168;2023-05-24T08:52:15;19.38;;;5.00;;
19436;SDS011;9854;50.968;4.168;2023-05-24T08:54:41;14.18;;;4.72;;
19436;SDS011;9854;50.968;4.168;2023-05-24T08:57:08;25.17;;;5.35;;
19436;SDS011;9854;50.968;4.168;2023-05-24T08:59:35;21.60;;;4.97;;
19436;SDS011;9854;50.968;4.168;2023-05-24T09:02:03;15.10;;;4.80;;
19436;SDS011;9854;50.968;4.168;2023-05-24T09:04:29;18.98;;;4.53;;
19436;SDS011;9854;50.968;4.168;2023-05-24T09:06:55;13.82;;;4.20;;
19436;SDS011;9854;50.968;4.168;2023-05-24T09:09:22;20.83;;;4.40;;
19436;SDS011;9854;50.968;4.168;2023-05-24T09:11:51;14.53;;;4.83;;
19436;SDS011;9854;50.968;4.168;2023-05-24T09:14:20;15.88;;;4.53;;
19436;SDS011;9854;50.968;4.168;2023-05-24T09:16:46;15.05;;;4.35;;
19436;SDS011;9854;50.968;4.168;2023-05-24T09:19:11;14.85;;;4.32;;
19436;SDS011;9854;50.968;4.168;2023-05-24T09:21:38;15.75;;;4.45;;
19436;SDS011;9854;50.968;4.168;2023-05-24T09:24:07;17.80;;;4.95;;
19436;SDS011;9854;50.968;4.168;2023-05-24T09:26:35;15.27;;;4.20;;
19436;SDS011;9854;50.968;4.168;2023-05-24T09:29:02;12.35;;;3.67;;
19436;SDS011;9854;50.968;4.168;2023-05-24T09:31:32;12.70;;;4.10;;
19436;SDS011;9854;50.968;4.168;2023-05-24T09:33:58;14.35;;;4.28;;
19436;SDS011;9854;50.968;4.168;2023-05-24T09:36:24;11.90;;;4.00;;
19436;SDS011;9854;50.968;4.168;2023-05-24T09:39:16;14.15;;;4.00;;
19436;SDS011;9854;50.968;4.168;2023-05-24T09:41:42;14.25;;;4.57;;
19436;SDS011;9854;50.968;4.168;2023-05-24T09:44:11;13.30;;;4.45;;
19436;SDS011;9854;50.968;4.168;2023-05-24T09:46:38;9.20;;;3.70;;
19436;SDS011;9854;50.968;4.168;2023-05-24T09:49:03;14.07;;;4.22;;
19436;SDS011;9854;50.968;4.168;2023-05-24T09:51:33;17.10;;;4.13;;
19436;SDS011;9854;50.968;4.168;2023-05-24T09:54:02;12.50;;;4.00;;
19436;SDS011;9854;50.968;4.168;2023-05-24T09:56:28;14.13;;;4.80;;
19436;SDS011;9854;50.968;4.168;2023-05-24T09:58:55;12.68;;;4.80;;
19436;SDS011;9854;50.968;4.168;2023-05-24T10:01:22;15.70;;;4.55;;
19436;SDS011;9854;50.968;4.168;2023-05-24T10:03:53;12.10;;;4.20;;
19436;SDS011;9854;50.968;4.168;2023-05-24T10:06:19;13.13;;;3.83;;
19436;SDS011;9854;50.968;4.168;2023-05-24T10:08:46;8.70;;;3.97;;
19436;SDS011;9854;50.968;4.168;2023-05-24T10:11:13;15.70;;;4.30;;
19436;SDS011;9854;50.968;4.168;2023-05-24T10:13:38;14.80;;;4.13;;
19436;SDS011;9854;50.968;4.168;2023-05-24T10:16:05;16.13;;;4.38;;
19436;SDS011;9854;50.968;4.168;2023-05-24T10:18:31;15.70;;;4.20;;
19436;SDS011;9854;50.968;4.168;2023-05-24T10:20:58;16.10;;;4.30;;
19436;SDS011;9854;50.968;4.168;2023-05-24T10:23:25;12.32;;;4.15;;
19436;SDS011;9854;50.968;4.168;2023-05-24T10:25:59;16.75;;;4.30;;
19436;SDS011;9854;50.968;4.168;2023-05-24T10:28:30;10.98;;;4.20;;
19436;SDS011;9854;50.968;4.168;2023-05-24T10:31:06;8.95;;;4.05;;
19436;SDS011;9854;50.968;4.168;2023-05-24T10:33:35;20.52;;;4.05;;
19436;SDS011;9854;50.968;4.168;2023-05-24T10:36:02;18.30;;;4.95;;
19436;SDS011;9854;50.968;4.168;2023-05-24T10:38:31;9.43;;;4.30;;
19436;SDS011;9854;50.968;4.168;2023-05-24T10:40:57;16.50;;;5.00;;
19436;SDS011;9854;50.968;4.168;2023-05-24T10:43:23;17.17;;;4.40;;
19436;SDS011;9854;50.968;4.168;2023-05-24T10:45:49;20.80;;;5.25;;
19436;SDS011;9854;50.968;4.168;2023-05-24T10:50:42;13.70;;;4.72;;
19436;SDS011;9854;50.968;4.168;2023-05-24T10:53:11;18.13;;;4.35;;
19436;SDS011;9854;50.968;4.168;2023-05-24T10:55:54;15.02;;;4.43;;
19436;SDS011;9854;50.968;4.168;2023-05-24T10:58:22;14.20;;;3.97;;
19436;SDS011;9854;50.968;4.168;2023-05-24T11:01:09;17.02;;;4.10;;
19436;SDS011;9854;50.968;4.168;2023-05-24T11:03:39;20.85;;;4.05;;
19436;SDS011;9854;50.968;4.168;2023-05-24T11:06:05;17.25;;;4.47;;
19436;SDS011;9854;50.968;4.168;2023-05-24T11:08:32;12.32;;;3.80;;
19436;SDS011;9854;50.968;4.168;2023-05-24T11:11:02;13.95;;;4.10;;
19436;SDS011;9854;50.968;4.168;2023-05-24T11:13:31;16.95;;;4.15;;
19436;SDS011;9854;50.968;4.168;2023-05-24T11:15:57;14.63;;;3.88;;
19436;SDS011;9854;50.968;4.168;2023-05-24T11:18:24;10.15;;;3.75;;
19436;SDS011;9854;50.968;4.168;2023-05-24T11:20:50;14.88;;;4.00;;
19436;SDS011;9854;50.968;4.168;2023-05-24T11:23:16;12.82;;;3.95;;
19436;SDS011;9854;50.968;4.168;2023-05-24T11:25:44;18.00;;;4.13;;
19436;SDS011;9854;50.968;4.168;2023-05-24T11:28:11;17.25;;;4.40;;
19436;SDS011;9854;50.968;4.168;2023-05-24T11:30:39;17.08;;;5.22;;
19436;SDS011;9854;50.968;4.168;2023-05-24T11:33:15;14.70;;;3.67;;
19436;SDS011;9854;50.968;4.168;2023-05-24T11:35:46;12.23;;;4.18;;
19436;SDS011;9854;50.968;4.168;2023-05-24T11:38:16;18.45;;;4.20;;
19436;SDS011;9854;50.968;4.168;2023-05-24T11:40:43;12.60;;;4.10;;
19436;SDS011;9854;50.968;4.168;2023-05-24T11:43:17;11.98;;;3.70;;
19436;SDS011;9854;50.968;4.168;2023-05-24T11:45:49;15.55;;;3.88;;
19436;SDS011;9854;50.968;4.168;2023-05-24T11:48:17;14.73;;;3.83;;
19436;SDS011;9854;50.968;4.168;2023-05-24T11:50:44;14.10;;;3.72;;
19436;SDS011;9854;50.968;4.168;2023-05-24T11:53:13;12.68;;;3.78;;
19436;SDS011;9854;50.968;4.168;2023-05-24T11:55:40;13.30;;;4.35;;
19436;SDS011;9854;50.968;4.168;2023-05-24T12:00:38;13.82;;;4.00;;
19436;SDS011;9854;50.968;4.168;2023-05-24T12:03:04;10.40;;;3.80;;
19436;SDS011;9854;50.968;4.168;2023-05-24T12:05:32;9.90;;;3.53;;
19436;SDS011;9854;50.968;4.168;2023-05-24T12:08:05;18.08;;;4.05;;
19436;SDS011;9854;50.968;4.168;2023-05-24T12:10:32;10.63;;;3.95;;
19436;SDS011;9854;50.968;4.168;2023-05-24T12:12:59;15.18;;;4.13;;
19436;SDS011;9854;50.968;4.168;2023-05-24T12:15:25;12.05;;;3.88;;
19436;SDS011;9854;50.968;4.168;2023-05-24T12:17:51;14.27;;;3.97;;
19436;SDS011;9854;50.968;4.168;2023-05-24T12:20:17;15.82;;;3.95;;
19436;SDS011;9854;50.968;4.168;2023-05-24T12:22:52;10.70;;;3.85;;
19436;SDS011;9854;50.968;4.168;2023-05-24T12:25:19;8.95;;;3.22;;
19436;SDS011;9854;50.968;4.168;2023-05-24T12:27:51;12.82;;;3.28;;
19436;SDS011;9854;50.968;4.168;2023-05-24T12:30:23;10.02;;;3.55;;
19436;SDS011;9854;50.968;4.168;2023-05-24T12:32:52;10.40;;;3.33;;
19436;SDS011;9854;50.968;4.168;2023-05-24T12:35:21;15.02;;;4.38;;
19436;SDS011;9854;50.968;4.168;2023-05-24T12:37:47;13.18;;;3.85;;
19436;SDS011;9854;50.968;4.168;2023-05-24T12:40:16;14.20;;;4.43;;
19436;SDS011;9854;50.968;4.168;2023-05-24T12:42:54;9.23;;;3.08;;
19436;SDS011;9854;50.968;4.168;2023-05-24T12:45:22;12.38;;;3.47;;
19436;SDS011;9854;50.968;4.168;2023-05-24T12:47:50;8.25;;;3.33;;
19436;SDS011;9854;50.968;4.168;2023-05-24T12:50:19;10.60;;;3.50;;
19436;SDS011;9854;50.968;4.168;2023-05-24T12:52:46;9.88;;;3.58;;
19436;SDS011;9854;50.968;4.168;2023-05-24T12:55:13;9.15;;;3.22;;
19436;SDS011;9854;50.968;4.168;2023-05-24T12:57:42;9.00;;;3.42;;
19436;SDS011;9854;50.968;4.168;2023-05-24T13:00:08;7.13;;;3.20;;
19436;SDS011;9854;50.968;4.168;2023-05-24T13:02:38;13.00;;;3.40;;
19436;SDS011;9854;50.968;4.168;2023-05-24T13:05:05;16.02;;;3.58;;
19436;SDS011;9854;50.968;4.168;2023-05-24T13:07:32;10.30;;;3.33;;
19436;SDS011;9854;50.968;4.168;2023-05-24T13:09:57;9.45;;;3.05;;
19436;SDS011;9854;50.968;4.168;2023-05-24T13:12:24;10.68;;;3.83;;
19436;SDS011;9854;50.968;4.168;2023-05-24T13:14:50;11.15;;;2.92;;
19436;SDS011;9854;50.968;4.168;2023-05-24T13:17:16;11.23;;;3.20;;
19436;SDS011;9854;50.968;4.168;2023-05-24T13:19:42;11.63;;;3.28;;
19436;SDS011;9854;50.968;4.168;2023-05-24T13:22:07;9.82;;;3.55;;
19436;SDS011;9854;50.968;4.168;2023-05-24T13:24:34;9.00;;;3.28;;
19436;SDS011;9854;50.968;4.168;2023-05-24T13:27:00;8.02;;;3.30;;
19436;SDS011;9854;50.968;4.168;2023-05-24T13:29:27;6.78;;;3.40;;
19436;SDS011;9854;50.968;4.168;2023-05-24T13:31:53;12.48;;;3.05;;
19436;SDS011;9854;50.968;4.168;2023-05-24T13:34:20;8.57;;;3.42;;
19436;SDS011;9854;50.968;4.168;2023-05-24T13:36:47;12.02;;;3.60;;
19436;SDS011;9854;50.968;4.168;2023-05-24T13:39:12;6.93;;;3.05;;
19436;SDS011;9854;50.968;4.168;2023-05-24T13:41:39;11.93;;;3.78;;
19436;SDS011;9854;50.968;4.168;2023-05-24T13:44:05;8.43;;;3.55;;
19436;SDS011;9854;50.968;4.168;2023-05-24T13:46:31;12.60;;;3.17;;
19436;SDS011;9854;50.968;4.168;2023-05-24T13:48:57;10.73;;;3.38;;
19436;SDS011;9854;50.968;4.168;2023-05-24T13:51:23;11.93;;;3.90;;
19436;SDS011;9854;50.968;4.168;2023-05-24T13:53:50;12.10;;;3.42;;
19436;SDS011;9854;50.968;4.168;2023-05-24T13:56:16;12.07;;;3.95;;
19436;SDS011;9854;50.968;4.168;2023-05-24T13:58:42;7.93;;;3.13;;
19436;SDS011;9854;50.968;4.168;2023-05-24T14:01:08;6.68;;;3.47;;
19436;SDS011;9854;50.968;4.168;2023-05-24T14:03:34;8.48;;;3.05;;
19436;SDS011;9854;50.968;4.168;2023-05-24T14:06:00;9.88;;;3.10;;
19436;SDS011;9854;50.968;4.168;2023-05-24T14:08:26;9.40;;;3.40;;
19436;SDS011;9854;50.968;4.168;2023-05-24T14:10:52;11.13;;;3.33;;
19436;SDS011;9854;50.968;4.168;2023-05-24T14:13:18;8.18;;;3.05;;
19436;SDS011;9854;50.968;4.168;2023-05-24T14:15:43;14.65;;;3.50;;
19436;SDS011;9854;50.968;4.168;2023-05-24T14:18:11;13.15;;;3.40;;
19436;SDS011;9854;50.968;4.168;2023-05-24T14:20:37;9.98;;;3.28;;
19436;SDS011;9854;50.968;4.168;2023-05-24T14:23:06;7.63;;;3.00;;
19436;SDS011;9854;50.968;4.168;2023-05-24T14:25:32;8.75;;;3.20;;
19436;SDS011;9854;50.968;4.168;2023-05-24T14:27:58;7.93;;;2.95;;
19436;SDS011;9854;50.968;4.168;2023-05-24T14:30:27;5.72;;;3.03;;
19436;SDS011;9854;50.968;4.168;2023-05-24T14:32:52;7.95;;;3.25;;
19436;SDS011;9854;50.968;4.168;2023-05-24T14:35:18;13.82;;;3.30;;
19436;SDS011;9854;50.968;4.168;2023-05-24T14:37:43;9.20;;;3.08;;
19436;SDS011;9854;50.968;4.168;2023-05-24T14:40:09;11.05;;;3.15;;
19436;SDS011;9854;50.968;4.168;2023-05-24T14:42:35;11.55;;;3.33;;
19436;SDS011;9854;50.968;4.168;2023-05-24T14:45:01;10.55;;;3.05;;
19436;SDS011;9854;50.968;4.168;2023-05-24T14:47:27;9.70;;;3.40;;
19436;SDS011;9854;50.968;4.168;2023-05-24T14:49:53;10.73;;;3.60;;
19436;SDS011;9854;50.968;4.168;2023-05-24T14:52:19;7.95;;;2.65;;
19436;SDS011;9854;50.968;4.168;2023-05-24T14:54:45;12.90;;;3.38;;
19436;SDS011;9854;50.968;4.168;2023-05-24T14:57:10;9.32;;;3.15;;
19436;SDS011;9854;50.968;4.168;2023-05-24T14:59:36;7.93;;;2.92;;
19436;SDS011;9854;50.968;4.168;2023-05-24T15:02:02;9.23;;;2.83;;
19436;SDS011;9854;50.968;4.168;2023-05-24T15:04:27;10.50;;;3.00;;
19436;SDS011;9854;50.968;4.168;2023-05-24T15:06:53;6.97;;;2.92;;
19436;SDS011;9854;50.968;4.168;2023-05-24T15:09:19;9.18;;;2.78;;
19436;SDS011;9854;50.968;4.168;2023-05-24T15:11:45;6.13;;;2.47;;
19436;SDS011;9854;50.968;4.168;2023-05-24T15:14:11;8.50;;;2.70;;